This is the latest recevied weather packets stored in our database for station/object W6KRP-12. If no packets are shown the sender has not sent any weather packets the latest 10 day(s).
| Time | Temp. | Humidity | Pressure | Rain* | Wind** | Luminosity | Snow |
|---|---|---|---|---|---|---|---|
| 1777378206 | 11.67° C | 88% | 1020.5 hPa | 0 mm | - | - | - |
| 1777375206 | 9.44° C | 97% | 1019.9 hPa | 0 mm | - | - | - |
| 1777374606 | 9.44° C | 97% | 1019.5 hPa | 0 mm | - | - | - |
| 1777374006 | 8.89° C | 97% | 1019.1 hPa | 0 mm | - | - | - |
| 1777368605 | 9.44° C | 98% | 1018.3 hPa | 0 mm | - | - | - |
| 1777362005 | 8.89° C | 96% | 1019.5 hPa | 0 mm | - | - | - |
| 1777357806 | 9.44° C | 95% | 1019.9 hPa | 0 mm | - | - | - |
| 1777356606 | 9.44° C | 95% | 1019.8 hPa | 0 mm | - | - | - |
| 1777347605 | 10.56° C | 93% | 1021 hPa | 0 mm | - | - | - |
| 1777345205 | 11.67° C | 91% | 1021.1 hPa | 0 mm | - | - | - |
| 1777343405 | 12.22° C | 90% | 1021 hPa | 0 mm | - | - | - |
| 1777339205 | 13.33° C | 84% | 1020.6 hPa | 0 mm | - | - | - |
| 1777330805 | 21.11° C | 58% | 1018.9 hPa | 0 mm | - | - | - |
| 1777327205 | 21.67° C | 50% | 1018.3 hPa | 0 mm | - | - | - |
| 1777325405 | 22.22° C | 49% | 1018.4 hPa | 0 mm | - | - | - |
| 1777309806 | 16.67° C | 65% | 1020.2 hPa | 0 mm | - | - | - |
| 1777306206 | 15.56° C | 69% | 1020.3 hPa | 0 mm | - | - | - |
| 1777301407 | 13.89° C | 74% | 1020.5 hPa | 0 mm | - | - | - |
| 1777298406 | 13.33° C | 77% | 1020.4 hPa | 0 mm | - | - | - |
| 1777295405 | 12.78° C | 78% | 1020.2 hPa | 0 mm | - | - | - |
| 1777292406 | 12.22° C | 82% | 1019.9 hPa | 0 mm | - | - | - |
| 1777285205 | 11.67° C | 83% | 1017.9 hPa | 0 mm | - | - | - |
| 1777284005 | 12.22° C | 82% | 1017.6 hPa | 0 mm | - | - | - |
| 1777282807 | 12.22° C | 81% | 1017.3 hPa | 0 mm | - | - | - |
| 1777275605 | 12.22° C | 83% | 1017.1 hPa | 0 mm | - | - | - |
* Rain latest hour (hover to see other rain measurements)
** Current wind speed in m/s (hover to see current wind gust speed)